createdAt,value
2023-03-14T00:01:09.770Z,11.20
2023-03-14T00:03:36.362Z,11.17
2023-03-14T00:06:03.624Z,11.17
2023-03-14T00:08:30.222Z,10.98
2023-03-14T00:10:58.616Z,11.08
2023-03-14T00:13:26.554Z,10.95
2023-03-14T00:15:53.187Z,11.13
2023-03-14T00:18:20.848Z,11.15
2023-03-14T00:20:47.441Z,11.13
2023-03-14T00:23:13.993Z,11.16
2023-03-14T00:25:40.623Z,11.20
2023-03-14T00:28:07.163Z,11.17
2023-03-14T00:30:38.743Z,11.16
2023-03-14T00:33:05.363Z,11.19
2023-03-14T00:35:31.985Z,10.83
2023-03-14T00:37:58.568Z,11.06
2023-03-14T00:40:25.142Z,11.13
2023-03-14T00:42:51.678Z,11.15
2023-03-14T00:45:18.271Z,11.12
2023-03-14T00:47:46.601Z,10.08
2023-03-14T00:50:14.315Z,10.75
2023-03-14T00:52:41.029Z,11.01
2023-03-14T00:55:08.239Z,11.05
2023-03-14T00:57:34.825Z,11.06
2023-03-14T01:00:01.416Z,11.07
2023-03-14T01:02:28.024Z,11.07
2023-03-14T01:04:55.951Z,11.07
2023-03-14T01:07:22.624Z,11.10
2023-03-14T01:09:52.959Z,11.15
2023-03-14T01:12:19.539Z,11.16
2023-03-14T01:14:46.142Z,11.09
2023-03-14T01:17:12.819Z,11.08
2023-03-14T01:19:39.462Z,11.07
2023-03-14T01:22:07.516Z,10.67
2023-03-14T01:24:34.084Z,10.46
2023-03-14T01:27:00.716Z,10.23
2023-03-14T01:29:27.286Z,10.87
2023-03-14T01:31:53.972Z,10.91
2023-03-14T01:34:20.620Z,10.85
2023-03-14T01:36:47.213Z,10.42
2023-03-14T01:39:15.558Z,9.64
2023-03-14T01:41:42.524Z,10.32
2023-03-14T01:44:11.652Z,9.69
2023-03-14T01:46:40.251Z,10.29
2023-03-14T01:49:13.089Z,10.74
2023-03-14T01:51:44.925Z,10.82
2023-03-14T01:54:18.803Z,10.63
2023-03-14T01:56:50.077Z,10.84
2023-03-14T01:59:16.730Z,10.85
2023-03-14T02:01:47.596Z,10.68
2023-03-14T02:04:15.672Z,10.73
2023-03-14T02:06:49.916Z,10.83
2023-03-14T02:09:18.025Z,10.34
2023-03-14T02:11:45.871Z,10.43
2023-03-14T02:14:20.101Z,10.33
2023-03-14T02:16:46.716Z,10.63
2023-03-14T02:19:17.271Z,9.99
2023-03-14T02:21:54.895Z,10.71
2023-03-14T02:24:32.688Z,10.63
2023-03-14T02:27:07.275Z,10.43
2023-03-14T02:29:37.059Z,10.68
2023-03-14T02:32:04.072Z,10.60
2023-03-14T02:34:32.676Z,9.70
2023-03-14T02:36:59.779Z,10.60
2023-03-14T02:39:34.225Z,10.52
2023-03-14T02:42:00.868Z,10.30
2023-03-14T02:45:14.158Z,10.15
2023-03-14T02:47:45.135Z,10.31
2023-03-14T02:50:15.643Z,10.52
2023-03-14T02:52:42.208Z,10.51
2023-03-14T02:55:09.601Z,9.64
2023-03-14T02:57:36.168Z,10.44
2023-03-14T03:00:07.147Z,9.62
2023-03-14T03:02:33.909Z,9.60
2023-03-14T03:05:01.806Z,9.47
2023-03-14T03:07:28.348Z,10.13
2023-03-14T03:09:54.922Z,7.67
2023-03-14T03:12:21.455Z,9.56
2023-03-14T03:14:47.999Z,10.04
2023-03-14T03:17:14.564Z,8.48
2023-03-14T03:19:41.145Z,8.70
2023-03-14T03:22:08.999Z,9.72
2023-03-14T03:24:35.743Z,10.11
2023-03-14T03:27:02.379Z,10.27
2023-03-14T03:29:29.060Z,10.29
2023-03-14T03:31:55.577Z,10.27
2023-03-14T03:34:22.124Z,10.28
2023-03-14T03:36:48.636Z,10.23
2023-03-14T03:39:16.516Z,10.28
2023-03-14T03:41:43.074Z,10.21
2023-03-14T03:44:09.644Z,9.65
2023-03-14T03:46:36.172Z,10.07
2023-03-14T03:49:02.723Z,9.29
2023-03-14T03:51:29.364Z,10.08
2023-03-14T03:53:57.184Z,10.22
2023-03-14T03:56:25.253Z,10.24
2023-03-14T03:58:51.800Z,10.24
2023-03-14T04:01:18.355Z,10.24
2023-03-14T04:03:45.011Z,10.26
2023-03-14T04:06:14.013Z,10.30
2023-03-14T04:08:42.296Z,10.30
2023-03-14T04:11:08.835Z,10.31
2023-03-14T04:13:36.828Z,10.01
2023-03-14T04:16:03.517Z,8.56
2023-03-14T04:18:31.277Z,9.31
2023-03-14T04:20:58.707Z,9.99
2023-03-14T04:23:25.757Z,10.13
2023-03-14T04:25:53.208Z,10.18
2023-03-14T04:28:20.182Z,10.20
2023-03-14T04:30:48.289Z,10.20
2023-03-14T04:33:18.159Z,10.21
2023-03-14T04:35:45.199Z,9.61
2023-03-14T04:38:12.080Z,9.88
2023-03-14T04:40:39.060Z,9.02
2023-03-14T04:43:05.618Z,9.87
2023-03-14T04:45:32.300Z,10.09
2023-03-14T04:48:00.169Z,10.11
2023-03-14T04:50:26.699Z,10.14
2023-03-14T04:52:53.235Z,10.15
2023-03-14T04:55:19.779Z,10.14
2023-03-14T04:57:46.309Z,10.20
2023-03-14T05:00:13.390Z,10.15
2023-03-14T05:02:39.995Z,10.14
2023-03-14T05:05:08.575Z,10.11
2023-03-14T05:07:35.128Z,10.13
2023-03-14T05:10:01.715Z,9.92
2023-03-14T05:12:28.244Z,9.67
2023-03-14T05:14:54.771Z,10.00
2023-03-14T05:17:21.448Z,10.07
2023-03-14T05:19:47.998Z,9.62
2023-03-14T05:22:15.990Z,9.98
2023-03-14T05:24:42.560Z,10.01
2023-03-14T05:27:09.139Z,9.29
2023-03-14T05:29:35.891Z,9.21
2023-03-14T05:32:02.504Z,9.71
2023-03-14T05:34:29.316Z,10.00
2023-03-14T05:36:57.094Z,10.04
2023-03-14T05:39:25.111Z,10.02
2023-03-14T05:41:51.970Z,9.75
2023-03-14T05:44:18.528Z,9.92
2023-03-14T05:46:45.096Z,9.95
2023-03-14T05:49:11.660Z,9.94
2023-03-14T05:51:38.298Z,9.95
2023-03-14T05:54:04.894Z,9.97
2023-03-14T05:56:32.898Z,9.94
2023-03-14T05:58:59.556Z,9.95
2023-03-14T06:01:26.156Z,9.92
2023-03-14T06:03:52.704Z,9.95
2023-03-14T06:06:19.294Z,9.97
2023-03-14T06:08:45.904Z,9.98
2023-03-14T06:11:12.513Z,9.99
2023-03-14T06:13:40.418Z,9.94
2023-03-14T06:16:07.748Z,9.91
2023-03-14T06:18:34.344Z,9.90
2023-03-14T06:21:00.900Z,9.57
2023-03-14T06:23:27.816Z,8.59
2023-03-14T06:25:54.363Z,9.63
2023-03-14T06:28:20.935Z,9.85
2023-03-14T06:30:48.871Z,9.66
2023-03-14T06:33:15.540Z,8.76
2023-03-14T06:35:42.190Z,8.70
2023-03-14T06:38:08.843Z,9.60
2023-03-14T06:40:35.518Z,9.76
2023-03-14T06:43:02.209Z,9.87
2023-03-14T06:45:28.823Z,9.90
2023-03-14T06:47:56.697Z,9.89
2023-03-14T06:50:23.857Z,9.93
2023-03-14T06:52:50.461Z,8.96
2023-03-14T06:55:17.639Z,8.26
2023-03-14T06:57:45.026Z,9.40
2023-03-14T07:00:12.870Z,9.67
2023-03-14T07:02:42.950Z,9.75
2023-03-14T07:05:11.568Z,9.83
2023-03-14T07:07:38.217Z,9.78
2023-03-14T07:10:05.570Z,9.81
2023-03-14T07:12:32.158Z,9.78
2023-03-14T07:15:05.695Z,9.82
2023-03-14T07:17:38.952Z,9.19
2023-03-14T07:20:08.259Z,9.46
2023-03-14T07:22:36.336Z,9.43
2023-03-14T07:25:02.968Z,9.71
2023-03-14T07:27:29.500Z,9.68
2023-03-14T07:29:56.116Z,9.77
2023-03-14T07:32:22.688Z,9.63
2023-03-14T07:34:49.258Z,9.65
2023-03-14T07:37:15.930Z,9.69
2023-03-14T07:39:43.785Z,9.50
2023-03-14T07:42:11.964Z,9.04
2023-03-14T07:44:38.528Z,9.37
2023-03-14T07:47:05.165Z,9.45
2023-03-14T07:49:31.717Z,9.03
2023-03-14T07:51:59.095Z,8.06
2023-03-14T07:54:25.980Z,8.38
2023-03-14T07:56:53.907Z,9.34
2023-03-14T07:59:20.723Z,9.52
2023-03-14T08:01:47.302Z,9.55
2023-03-14T08:04:13.926Z,9.57
2023-03-14T08:06:40.528Z,9.13
2023-03-14T08:09:07.120Z,9.21
2023-03-14T08:11:33.671Z,9.51
2023-03-14T08:14:01.611Z,9.54
2023-03-14T08:16:28.247Z,9.58
2023-03-14T08:18:54.883Z,9.63
2023-03-14T08:21:21.426Z,9.65
2023-03-14T08:23:48.050Z,9.63
2023-03-14T08:26:14.660Z,9.56
2023-03-14T08:28:41.296Z,9.63
2023-03-14T08:31:09.371Z,9.60
2023-03-14T08:33:36.009Z,9.54
2023-03-14T08:36:03.167Z,9.39
2023-03-14T08:38:30.009Z,9.47
2023-03-14T08:40:58.010Z,9.49
2023-03-14T08:43:24.581Z,9.60
2023-03-14T08:45:51.163Z,9.27
2023-03-14T08:48:20.390Z,8.60
2023-03-14T08:50:47.342Z,9.35
2023-03-14T08:53:13.969Z,8.89
2023-03-14T08:55:40.546Z,8.20
2023-03-14T08:58:07.118Z,8.90
2023-03-14T09:00:33.725Z,9.15
2023-03-14T09:03:00.331Z,9.38
2023-03-14T09:05:28.320Z,9.14
2023-03-14T09:07:54.876Z,8.70
2023-03-14T09:10:21.453Z,8.84
2023-03-14T09:12:48.028Z,8.67
2023-03-14T09:15:14.582Z,8.51
2023-03-14T09:17:43.458Z,8.71
2023-03-14T09:20:11.655Z,9.26
2023-03-14T09:22:39.513Z,9.03
2023-03-14T09:25:07.110Z,7.66
2023-03-14T09:27:33.712Z,8.89
2023-03-14T09:30:00.416Z,8.60
2023-03-14T09:32:27.439Z,8.48
2023-03-14T09:34:53.999Z,8.92
2023-03-14T09:37:21.908Z,9.07
2023-03-14T09:39:49.853Z,9.24
2023-03-14T09:42:19.964Z,9.30
2023-03-14T09:44:54.942Z,9.29
2023-03-14T09:47:23.051Z,9.04
2023-03-14T09:49:49.591Z,8.63
2023-03-14T09:52:20.437Z,8.44
2023-03-14T09:54:51.564Z,9.04
2023-03-14T09:57:20.559Z,9.07
2023-03-14T09:59:49.867Z,8.73
2023-03-14T10:02:19.319Z,8.66
2023-03-14T10:04:47.199Z,8.40
2023-03-14T10:07:16.538Z,8.48
2023-03-14T10:09:44.754Z,8.68
2023-03-14T10:12:12.869Z,8.98
2023-03-14T10:14:47.266Z,8.89
2023-03-14T10:17:15.254Z,8.92
2023-03-14T10:19:53.699Z,9.17
2023-03-14T10:22:20.871Z,9.20
2023-03-14T10:24:51.921Z,11.67
2023-03-14T10:27:22.030Z,11.76
2023-03-14T10:29:59.988Z,10.37
2023-03-14T10:32:34.498Z,10.81
2023-03-14T10:35:09.724Z,10.55
2023-03-14T10:37:36.614Z,9.67
2023-03-14T10:40:06.804Z,9.96
2023-03-14T10:42:40.097Z,10.14
2023-03-14T10:45:28.287Z,9.96
2023-03-14T10:47:55.049Z,9.67
2023-03-14T10:50:27.784Z,9.72
2023-03-14T10:53:03.574Z,9.85
2023-03-14T10:55:42.742Z,9.85
2023-03-14T10:58:24.962Z,9.76
2023-03-14T11:01:01.302Z,10.34
2023-03-14T11:03:30.314Z,10.52
2023-03-14T11:05:59.310Z,10.99
2023-03-14T11:08:32.683Z,10.85
2023-03-14T11:11:11.920Z,10.53
2023-03-14T11:13:44.858Z,10.80
2023-03-14T11:16:20.511Z,10.73
2023-03-14T11:21:42.006Z,10.17
2023-03-14T11:24:33.854Z,10.41
2023-03-14T11:27:06.230Z,10.50
2023-03-14T11:29:40.297Z,10.27
2023-03-14T11:32:14.884Z,10.51
2023-03-14T11:34:48.857Z,10.46
2023-03-14T11:37:25.588Z,10.30
2023-03-14T11:40:00.543Z,10.15
2023-03-14T11:42:28.319Z,10.19
2023-03-14T11:44:56.826Z,10.50
2023-03-14T11:47:27.203Z,10.54
2023-03-14T11:50:00.073Z,10.19
2023-03-14T11:52:33.589Z,10.45
2023-03-14T11:55:06.219Z,10.46
2023-03-14T11:57:32.876Z,10.56
2023-03-14T12:00:05.248Z,10.34
2023-03-14T12:02:40.693Z,10.34
2023-03-14T12:05:29.245Z,10.54
2023-03-14T12:08:36.907Z,10.57
2023-03-14T12:11:09.791Z,10.57
2023-03-14T12:13:38.936Z,10.54
2023-03-14T12:16:08.196Z,10.57
2023-03-14T12:18:39.613Z,10.48
2023-03-14T12:21:08.361Z,10.51
2023-03-14T12:23:41.758Z,10.66
2023-03-14T12:26:15.876Z,10.79
2023-03-14T12:28:46.247Z,10.10
2023-03-14T12:31:38.520Z,10.46
2023-03-14T12:34:30.804Z,10.28
2023-03-14T12:37:07.073Z,10.33
2023-03-14T12:39:40.932Z,10.30
2023-03-14T12:42:12.604Z,10.05
2023-03-14T12:44:44.679Z,10.21
2023-03-14T12:47:44.220Z,10.17
2023-03-14T12:50:19.474Z,9.97
2023-03-14T12:53:00.755Z,10.60
2023-03-14T12:55:36.455Z,10.80
2023-03-14T12:58:13.333Z,10.39
2023-03-14T13:00:42.073Z,11.05
2023-03-14T13:03:20.331Z,10.43
2023-03-14T13:05:54.271Z,10.84
2023-03-14T13:08:36.197Z,10.98
2023-03-14T13:11:06.837Z,11.23
2023-03-14T13:13:35.923Z,10.64
2023-03-14T13:16:06.525Z,11.01
2023-03-14T13:18:37.216Z,10.26
2023-03-14T13:21:07.623Z,10.32
2023-03-14T13:23:37.726Z,10.47
2023-03-14T13:26:12.160Z,10.25
2023-03-14T13:28:38.918Z,10.35
2023-03-14T13:31:08.993Z,10.06
2023-03-14T13:33:35.904Z,10.11
2023-03-14T13:36:04.797Z,10.10
2023-03-14T13:38:33.915Z,10.16
2023-03-14T13:41:04.940Z,10.31
2023-03-14T13:43:34.401Z,10.08
2023-03-14T13:46:05.704Z,10.08
2023-03-14T13:48:35.531Z,10.03
2023-03-14T13:51:05.291Z,9.92
2023-03-14T13:53:32.744Z,9.99
2023-03-14T13:56:03.522Z,9.99
2023-03-14T13:58:32.150Z,9.91
2023-03-14T14:01:13.778Z,9.96
2023-03-14T14:03:42.702Z,9.88
2023-03-14T14:06:18.663Z,9.87
2023-03-14T14:08:46.165Z,9.85
2023-03-14T14:11:24.518Z,9.82
2023-03-14T14:13:52.868Z,9.78
2023-03-14T14:16:25.845Z,9.88
2023-03-14T14:18:54.650Z,9.82
2023-03-14T14:21:21.443Z,9.58
2023-03-14T14:23:48.672Z,9.82
2023-03-14T14:26:17.889Z,9.73
2023-03-14T14:28:44.540Z,9.81
2023-03-14T14:31:22.642Z,9.85
2023-03-14T14:33:56.822Z,9.42
2023-03-14T14:36:26.672Z,9.36
2023-03-14T14:38:55.529Z,9.75
2023-03-14T14:41:22.579Z,9.24
2023-03-14T14:43:49.653Z,8.75
2023-03-14T14:46:19.940Z,8.92
2023-03-14T14:48:52.387Z,8.41
2023-03-14T14:51:27.625Z,8.65
2023-03-14T14:54:13.502Z,9.41
2023-03-14T14:56:40.576Z,9.18
2023-03-14T14:59:19.498Z,8.93
2023-03-14T15:01:48.309Z,9.46
2023-03-14T15:04:16.589Z,8.96
2023-03-14T15:06:45.257Z,9.20
2023-03-14T15:09:12.420Z,9.20
2023-03-14T15:11:38.974Z,9.05
2023-03-14T15:14:07.715Z,9.40
2023-03-14T15:16:34.829Z,9.48
2023-03-14T15:19:17.980Z,9.34
2023-03-14T15:21:51.858Z,8.93
2023-03-14T15:24:18.421Z,9.21
2023-03-14T15:26:45.347Z,9.21
2023-03-14T15:29:13.481Z,9.02
2023-03-14T15:31:41.070Z,9.09
2023-03-14T15:34:07.665Z,9.37
2023-03-14T15:36:36.432Z,9.02
2023-03-14T15:39:06.500Z,9.07
2023-03-14T15:41:33.080Z,8.73
2023-03-14T15:43:59.620Z,8.98
2023-03-14T15:46:26.345Z,8.90
2023-03-14T15:48:52.995Z,9.06
2023-03-14T15:51:19.884Z,8.99
2023-03-14T15:53:46.592Z,9.12
2023-03-14T15:56:16.722Z,8.94
2023-03-14T15:58:47.283Z,8.66
2023-03-14T16:01:14.806Z,8.67
2023-03-14T16:03:41.425Z,8.47
2023-03-14T16:06:08.046Z,7.43
2023-03-14T16:08:34.650Z,8.68
2023-03-14T16:11:01.464Z,8.48
2023-03-14T16:13:30.044Z,9.10
2023-03-14T16:15:59.076Z,7.96
2023-03-14T16:18:28.077Z,7.85
2023-03-14T16:20:56.256Z,7.75
2023-03-14T16:23:23.333Z,8.69
2023-03-14T16:25:50.090Z,7.96
2023-03-14T16:28:17.014Z,8.00
2023-03-14T16:30:44.954Z,7.98
2023-03-14T16:33:12.824Z,8.57
2023-03-14T16:35:39.810Z,7.36
2023-03-14T16:38:06.528Z,7.30
2023-03-14T16:40:33.275Z,8.24
2023-03-14T16:45:50.172Z,7.40
2023-03-14T16:48:16.815Z,8.51
2023-03-14T16:50:43.377Z,7.87
2023-03-14T16:53:11.805Z,7.75
2023-03-14T16:55:41.528Z,8.23
2023-03-14T16:58:08.202Z,8.36
2023-03-14T17:00:34.765Z,7.77
2023-03-14T17:03:03.365Z,7.68
2023-03-14T17:05:30.022Z,6.84
2023-03-14T17:07:56.692Z,8.06
2023-03-14T17:10:23.715Z,7.83
2023-03-14T17:12:50.289Z,8.03
2023-03-14T17:15:17.022Z,7.17
2023-03-14T17:17:43.568Z,7.55
2023-03-14T17:20:12.485Z,7.82
2023-03-14T17:22:39.095Z,7.87
2023-03-14T17:25:06.822Z,8.35
2023-03-14T17:27:36.075Z,7.72
2023-03-14T17:30:02.825Z,7.72
2023-03-14T17:32:29.483Z,8.30
2023-03-14T17:34:56.260Z,8.52
2023-03-14T17:37:24.317Z,7.97
2023-03-14T17:39:50.912Z,8.23
2023-03-14T17:42:17.514Z,7.26
2023-03-14T17:44:44.254Z,6.46
2023-03-14T17:47:11.018Z,6.20
2023-03-14T17:49:38.666Z,6.85
2023-03-14T17:52:05.568Z,8.04
2023-03-14T17:54:33.459Z,7.89
2023-03-14T17:57:00.390Z,6.83
2023-03-14T17:59:26.977Z,6.71
2023-03-14T18:01:53.674Z,6.88
2023-03-14T18:04:21.135Z,8.25
2023-03-14T18:06:47.718Z,8.15
2023-03-14T18:09:14.355Z,7.89
2023-03-14T18:11:42.423Z,7.61
2023-03-14T18:14:10.252Z,7.18
2023-03-14T18:16:37.207Z,8.12
2023-03-14T18:19:03.901Z,6.94
2023-03-14T18:21:31.011Z,6.36
2023-03-14T18:23:57.680Z,7.26
2023-03-14T18:26:27.385Z,6.89
2023-03-14T18:28:55.382Z,7.30
2023-03-14T18:31:25.068Z,6.41
2023-03-14T18:33:55.173Z,7.68
2023-03-14T18:36:22.342Z,8.36
2023-03-14T18:38:50.558Z,8.15
2023-03-14T18:41:20.008Z,8.20
2023-03-14T18:43:46.590Z,8.02
2023-03-14T18:46:15.562Z,6.89
2023-03-14T18:48:43.340Z,8.23
2023-03-14T18:51:12.257Z,6.81
2023-03-14T18:53:38.872Z,7.47
2023-03-14T18:56:06.420Z,7.73
2023-03-14T18:58:33.094Z,8.21
2023-03-14T19:01:01.708Z,7.12
2023-03-14T19:03:30.497Z,8.13
2023-03-14T19:05:58.361Z,7.05
2023-03-14T19:08:25.708Z,6.25
2023-03-14T19:10:54.698Z,7.19
2023-03-14T19:13:21.715Z,7.49
2023-03-14T19:15:48.396Z,7.97
2023-03-14T19:18:15.224Z,8.20
2023-03-14T19:20:44.939Z,8.30
2023-03-14T19:23:14.101Z,5.82
2023-03-14T19:25:41.757Z,7.20
2023-03-14T19:28:08.370Z,7.90
2023-03-14T19:30:35.022Z,7.83
2023-03-14T19:33:01.644Z,6.55
2023-03-14T19:35:28.420Z,6.80
2023-03-14T19:37:56.494Z,5.85
2023-03-14T19:40:23.078Z,7.77
2023-03-14T19:42:49.664Z,7.88
2023-03-14T19:45:16.414Z,6.83
2023-03-14T19:47:42.971Z,7.20
2023-03-14T19:50:10.796Z,7.48
2023-03-14T19:52:38.982Z,6.29
2023-03-14T19:55:07.606Z,7.37
2023-03-14T19:57:34.205Z,7.41
2023-03-14T20:00:00.820Z,7.49
2023-03-14T20:02:28.613Z,7.54
2023-03-14T20:04:56.150Z,7.37
2023-03-14T20:07:23.582Z,7.93
2023-03-14T20:09:50.187Z,8.12
2023-03-14T20:12:18.071Z,8.04
2023-03-14T20:14:44.670Z,8.02
2023-03-14T20:17:11.640Z,7.93
2023-03-14T20:19:38.382Z,8.16
2023-03-14T20:22:04.927Z,8.16
2023-03-14T20:24:32.443Z,8.18
2023-03-14T20:26:59.947Z,7.56
2023-03-14T20:29:28.107Z,7.23
2023-03-14T20:31:54.716Z,7.39
2023-03-14T20:34:21.380Z,8.11
2023-03-14T20:36:47.957Z,5.98
2023-03-14T20:39:15.311Z,6.47
2023-03-14T20:41:42.321Z,7.69
2023-03-14T20:44:12.891Z,6.74
2023-03-14T20:46:41.054Z,6.14
2023-03-14T20:49:07.788Z,7.06
2023-03-14T20:51:34.364Z,6.56
2023-03-14T20:54:00.964Z,6.43
2023-03-14T20:56:27.510Z,6.85
2023-03-14T20:58:54.052Z,6.86
2023-03-14T21:01:20.980Z,6.72
2023-03-14T21:03:48.912Z,7.74
2023-03-14T21:06:15.480Z,7.74
2023-03-14T21:08:43.577Z,6.45
2023-03-14T21:11:10.258Z,6.03
2023-03-14T21:13:36.817Z,5.92
2023-03-14T21:16:04.059Z,6.40
2023-03-14T21:18:31.564Z,6.11
2023-03-14T21:21:00.219Z,4.97
2023-03-14T21:23:26.983Z,5.78
2023-03-14T21:25:54.360Z,6.93
2023-03-14T21:28:20.954Z,5.45
2023-03-14T21:30:47.616Z,4.94
2023-03-14T21:33:15.435Z,4.68
2023-03-14T21:35:42.185Z,6.14
2023-03-14T21:38:10.234Z,7.15
2023-03-14T21:40:37.561Z,5.89
2023-03-14T21:43:04.617Z,6.93
2023-03-14T21:45:31.340Z,4.58
2023-03-14T21:47:58.670Z,4.19
2023-03-14T21:50:26.572Z,5.24
2023-03-14T21:52:56.765Z,6.21
2023-03-14T21:55:25.775Z,7.06
2023-03-14T21:57:55.106Z,6.25
2023-03-14T22:00:22.805Z,4.72
2023-03-14T22:03:11.685Z,4.07
2023-03-14T22:05:41.136Z,3.83
2023-03-14T22:08:07.937Z,3.98
2023-03-14T22:10:35.853Z,3.88
2023-03-14T22:13:02.413Z,5.69
2023-03-14T22:15:29.021Z,4.69
2023-03-14T22:17:55.604Z,3.92
2023-03-14T22:20:22.773Z,3.82
2023-03-14T22:22:49.313Z,5.34
2023-03-14T22:25:15.975Z,6.64
2023-03-14T22:27:43.830Z,6.86
2023-03-14T22:30:11.861Z,5.77
2023-03-14T22:32:38.521Z,6.75
2023-03-14T22:35:05.739Z,5.47
2023-03-14T22:37:32.313Z,6.43
2023-03-14T22:39:58.838Z,6.96
2023-03-14T22:42:25.613Z,5.98
2023-03-14T22:44:53.813Z,6.62
2023-03-14T22:47:20.605Z,6.56
2023-03-14T22:49:47.158Z,6.91
2023-03-14T22:52:13.828Z,6.83
2023-03-14T22:54:40.434Z,6.98
2023-03-14T22:57:07.013Z,7.09
2023-03-14T22:59:33.645Z,6.35
2023-03-14T23:02:01.637Z,6.39
2023-03-14T23:04:28.191Z,6.85
2023-03-14T23:06:54.725Z,6.45
2023-03-14T23:09:21.497Z,7.17
2023-03-14T23:11:48.022Z,6.82
2023-03-14T23:14:14.719Z,5.16
2023-03-14T23:16:41.308Z,7.03
2023-03-14T23:19:10.509Z,7.20
2023-03-14T23:21:37.680Z,7.18
2023-03-14T23:24:06.054Z,7.30
2023-03-14T23:26:35.618Z,7.30
2023-03-14T23:29:05.413Z,7.32
2023-03-14T23:31:32.154Z,7.30
2023-03-14T23:33:58.730Z,7.28
2023-03-14T23:36:26.740Z,7.02
2023-03-14T23:38:53.372Z,6.77
2023-03-14T23:41:19.947Z,5.56
2023-03-14T23:43:47.843Z,6.93
2023-03-14T23:46:15.153Z,7.21
2023-03-14T23:48:41.752Z,6.92
2023-03-14T23:51:10.577Z,7.23
2023-03-14T23:53:39.316Z,7.29
2023-03-14T23:56:06.813Z,7.29
2023-03-14T23:58:36.441Z,7.20
